Impacts TAF Board
For situational awareness. Not to be used for flight planning purposes.
IDs:

KOKC - Oklahoma City/Will R, OK, US

Issued at 1122 UTC 03 Dec 2021
Updated at 1544 UTC 03 Dec 2021
Potential Impact None Slight Moderate High
Time1452Z 03/16Z 03/17Z 03/18Z 03/19Z 03/20Z 03/21Z 03/22Z 03/23Z 04/00Z 04/01Z 04/02Z 04/03Z 04/04Z>>
Type OBS PRVL PRVL PRVL PRVL PRVL PRVL PRVL PRVL PRVL PRVL PRVL PRVL PRVL
VIS 10 >6 >6 >6 >6 >6 >6 >6 >6 >6 >6 >6 >6 >6
CIG -- -- -- -- -- -- -- -- -- 200 200 200 200 200
Cover SCT SCT SCT SCT SCT SCT SCT SCT SCT OVC OVC OVC OVC OVC
FltCat VFR VFR VFR VFR VFR VFR VFR VFR VFR VFR VFR VFR VFR VFR
WX -- -- -- -- -- -- -- -- -- -- -- -- -- --
WDir 170 190 190 190 190 190 190 190 190 20 20 20 20 20
WSpd 7 8 8 8 8 8 8 8 8 8 8 8 8 8
WGst -- -- -- -- -- -- -- -- -- -- -- -- -- --
WSHgt -- -- -- -- -- -- -- -- -- -- -- -- -- --
WSDir -- -- -- -- -- -- -- -- -- -- -- -- -- --
WSSpd -- -- -- -- -- -- -- -- -- -- -- -- -- --
R13/31
XWnd -4 -7 -7 -7 -7 -7 -7 -7 -7 7 7 7 7 7
HWnd 6 5 5 5 5 5 5 5 5 -3 -3 -3 -3 -3
R17/35
XWnd 1 -1 -1 -1 -1 -1 -1 -1 -1 3 3 3 3 3
HWnd 7 8 8 8 8 8 8 8 8 -8 -8 -8 -8 -8
R18/36
XWnd 1 -1 -1 -1 -1 -1 -1 -1 -1 3 3 3 3 3
HWnd 7 8 8 8 8 8 8 8 8 -8 -8 -8 -8 -8
Raw TAF
KOKC 031122Z 0312/0412 19008KT P6SM SCT250
  FM040000 02008KT P6SM OVC200
  TEMPO 0410/0412 SCT010


Raw METAR
KOKC 031452Z 17007KT 10SM SCT250 12/11 A2994 RMK AO2 SLP135 T01220111 53008
KOKC 031352Z 17006KT 10SM SCT250 10/09 A2993 RMK AO2 SLP131 T01000089
KOKC 031252Z 16008KT 6SM BR SCT250 09/08 A2992 RMK AO2 SLP129 T00940083

METAR Board
Radar Display
Forecast Discussion
For situational awareness. Not to be used for flight planning purposes.